createdAt,value
2023-03-03T12:47:55.487Z,16.80
2023-03-03T12:48:55.079Z,15.80
2023-03-03T12:50:06.646Z,16.40
2023-03-03T12:50:55.065Z,16.00
2023-03-03T12:51:55.109Z,17.00
2023-03-03T12:53:01.851Z,16.20
2023-03-03T12:54:01.283Z,16.60
2023-03-03T12:54:55.411Z,16.10
2023-03-03T12:55:55.269Z,16.50
2023-03-03T12:57:00.858Z,15.40
2023-03-03T12:57:55.232Z,16.80
2023-03-03T12:58:55.302Z,16.30
2023-03-03T12:59:55.236Z,16.70
2023-03-03T13:00:57.309Z,16.60
2023-03-03T13:01:55.213Z,16.50
2023-03-03T13:02:55.243Z,15.90
2023-03-03T13:03:58.421Z,14.70
2023-03-03T13:04:55.231Z,14.80
2023-03-03T13:05:58.189Z,15.40
2023-03-03T13:06:55.405Z,15.30
2023-03-03T13:07:55.281Z,15.70
2023-03-03T13:08:55.308Z,14.90
2023-03-03T13:09:55.234Z,15.10
2023-03-03T13:10:55.302Z,14.30
2023-03-03T13:11:55.248Z,14.90
2023-03-03T13:12:55.265Z,14.80
2023-03-03T13:13:55.292Z,15.20
2023-03-03T13:14:55.353Z,14.50
2023-03-03T13:15:56.478Z,14.30
2023-03-03T13:16:55.299Z,14.60
2023-03-03T13:17:55.252Z,15.40
2023-03-03T13:18:55.241Z,15.00
2023-03-03T13:19:55.293Z,15.10
2023-03-03T13:20:55.237Z,14.70
2023-03-03T13:21:55.747Z,14.90
2023-03-03T13:22:55.310Z,14.90
2023-03-03T13:23:55.268Z,14.40
2023-03-03T13:24:55.349Z,15.00
2023-03-03T13:25:55.380Z,15.20
2023-03-03T13:26:57.945Z,15.20
2023-03-03T13:27:55.343Z,14.80
2023-03-03T13:28:55.266Z,14.80
2023-03-03T13:29:55.266Z,14.90
2023-03-03T13:30:57.363Z,14.00
2023-03-03T13:31:55.773Z,14.30
2023-03-03T13:32:55.294Z,14.40
2023-03-03T13:33:55.371Z,14.80
2023-03-03T13:34:55.314Z,13.80
2023-03-03T13:36:00.700Z,14.20
2023-03-03T13:36:58.835Z,14.50
2023-03-03T13:37:58.075Z,14.60
2023-03-03T13:38:57.605Z,14.50
2023-03-03T13:39:58.397Z,14.40
2023-03-03T13:40:55.383Z,14.60
2023-03-03T13:42:01.428Z,13.60
2023-03-03T13:42:55.319Z,13.70
2023-03-03T13:44:02.826Z,13.40
2023-03-03T13:44:55.470Z,14.60
2023-03-03T13:45:55.403Z,13.80
2023-03-03T13:46:55.527Z,13.30
2023-03-03T13:47:55.494Z,13.90
2023-03-03T13:48:55.713Z,13.60
2023-03-03T13:49:58.516Z,14.10
2023-03-03T13:50:55.579Z,13.90
2023-03-03T13:51:55.675Z,13.80
2023-03-03T13:52:55.727Z,13.20
2023-03-03T13:53:55.566Z,13.10
2023-03-03T13:54:55.587Z,12.40
2023-03-03T13:55:55.710Z,13.60
2023-03-03T13:56:55.718Z,13.20
2023-03-03T13:57:55.678Z,12.60
2023-03-03T13:58:59.978Z,12.20
2023-03-03T13:59:57.824Z,12.90
2023-03-03T14:00:55.854Z,11.80
2023-03-03T14:01:55.572Z,12.30
2023-03-03T14:02:55.698Z,12.50
2023-03-03T14:03:55.709Z,13.40
2023-03-03T14:04:55.675Z,13.40
2023-03-03T14:05:55.620Z,13.70
2023-03-03T14:06:55.683Z,13.60
2023-03-03T14:07:55.656Z,18.30
2023-03-03T14:08:55.684Z,14.70
2023-03-03T14:09:55.738Z,13.20
2023-03-03T14:10:55.716Z,16.70
2023-03-03T14:11:58.836Z,12.90
2023-03-03T14:12:58.744Z,13.60
2023-03-03T14:13:55.853Z,19.00
2023-03-03T14:14:55.910Z,15.10
2023-03-03T14:15:57.110Z,12.50
2023-03-03T14:16:56.308Z,12.60
2023-03-03T14:17:56.041Z,13.80
2023-03-03T14:18:55.791Z,12.40
2023-03-03T14:19:55.782Z,12.70
2023-03-03T14:20:55.822Z,12.40
2023-03-03T14:21:55.796Z,12.40
2023-03-03T14:22:55.821Z,12.40
2023-03-03T14:23:55.896Z,13.20
2023-03-03T14:24:55.887Z,12.80
2023-03-03T14:25:55.834Z,12.30
2023-03-03T14:26:56.116Z,12.30
2023-03-03T14:27:55.837Z,11.90
2023-03-03T14:28:55.857Z,11.70
2023-03-03T14:29:55.860Z,12.30
2023-03-03T14:30:55.971Z,12.30
2023-03-03T14:31:55.838Z,12.80
2023-03-03T14:32:55.853Z,11.90
2023-03-03T14:33:55.883Z,13.10
2023-03-03T14:34:55.899Z,12.20
2023-03-03T14:35:55.854Z,13.30
2023-03-03T14:36:55.871Z,12.70
2023-03-03T14:37:55.801Z,11.80
2023-03-03T14:38:55.856Z,11.70
2023-03-03T14:39:55.814Z,12.90
2023-03-03T14:40:55.859Z,13.30
2023-03-03T14:41:56.137Z,12.00
2023-03-03T14:42:55.862Z,12.20
2023-03-03T14:43:55.786Z,12.70
2023-03-03T14:44:55.929Z,12.30
2023-03-03T14:45:55.916Z,12.70
2023-03-03T14:46:55.824Z,12.60
2023-03-03T14:47:55.870Z,12.20
2023-03-03T14:48:56.021Z,11.70
2023-03-03T14:49:55.883Z,12.10
2023-03-03T14:50:55.925Z,12.10
2023-03-03T14:51:55.834Z,12.70
2023-03-03T14:52:55.944Z,12.60
2023-03-03T14:53:55.840Z,12.10
2023-03-03T14:54:55.929Z,12.10
2023-03-03T14:55:55.857Z,12.70
2023-03-03T14:56:55.885Z,12.90
2023-03-03T14:57:55.882Z,12.80
2023-03-03T14:58:55.846Z,13.30
2023-03-03T14:59:55.916Z,12.60
2023-03-03T15:00:55.910Z,12.90
2023-03-03T15:01:55.917Z,12.30
2023-03-03T15:02:56.024Z,13.30
2023-03-03T15:03:55.991Z,12.60
2023-03-03T15:04:56.080Z,12.80
2023-03-03T15:05:56.006Z,12.60
2023-03-03T15:06:55.975Z,12.70
2023-03-03T15:07:56.217Z,12.10
2023-03-03T15:08:56.135Z,12.30
2023-03-03T15:09:56.125Z,12.10
2023-03-03T15:10:56.110Z,12.50
2023-03-03T15:11:56.250Z,12.60
2023-03-03T15:12:56.196Z,12.70
2023-03-03T15:13:56.153Z,12.60
2023-03-03T15:14:56.265Z,13.50
2023-03-03T15:15:56.384Z,12.40
2023-03-03T15:16:56.369Z,12.50
2023-03-03T15:17:56.372Z,12.30
2023-03-03T15:18:56.331Z,11.90
2023-03-03T15:19:56.348Z,12.00
2023-03-03T15:20:56.381Z,12.30
2023-03-03T15:21:56.410Z,12.60
2023-03-03T15:22:56.431Z,12.00
2023-03-03T15:23:56.434Z,11.90
2023-03-03T15:24:56.557Z,12.40
2023-03-03T15:25:58.714Z,12.40
2023-03-03T15:26:56.661Z,12.70
2023-03-03T15:27:56.657Z,12.30
2023-03-03T15:28:56.688Z,11.50
2023-03-03T15:29:56.740Z,11.80
2023-03-03T15:30:56.794Z,12.50
2023-03-03T15:31:56.798Z,12.30
2023-03-03T15:32:56.890Z,12.20
2023-03-03T15:33:56.769Z,12.30
2023-03-03T15:34:56.807Z,11.50
2023-03-03T15:35:56.840Z,12.40
2023-03-03T15:36:57.456Z,12.90
2023-03-03T15:37:56.808Z,12.80
2023-03-03T15:38:56.936Z,12.80
2023-03-03T15:39:56.930Z,12.10
2023-03-03T15:40:56.910Z,12.10
2023-03-03T15:41:56.969Z,11.80
2023-03-03T15:42:56.908Z,12.30
2023-03-03T15:43:57.043Z,12.10
2023-03-03T15:44:57.144Z,11.50
2023-03-03T15:45:57.192Z,12.20
2023-03-03T15:46:57.104Z,11.50
2023-03-03T15:47:57.131Z,12.80
2023-03-03T15:48:57.190Z,12.60
2023-03-03T15:49:57.137Z,12.60
2023-03-03T15:50:57.261Z,11.80
2023-03-03T15:52:03.403Z,12.00
2023-03-03T15:52:57.292Z,12.10
2023-03-03T15:53:57.282Z,13.10
2023-03-03T15:54:57.283Z,14.50
2023-03-03T15:55:57.325Z,16.80
2023-03-03T15:56:58.348Z,17.90
2023-03-03T15:57:57.316Z,17.50
2023-03-03T15:58:57.315Z,18.60
2023-03-03T15:59:57.309Z,18.70
2023-03-03T16:00:57.216Z,16.20
2023-03-03T16:01:57.747Z,15.40
2023-03-03T16:02:58.909Z,14.10
2023-03-03T16:03:57.308Z,14.50
2023-03-03T16:04:57.312Z,12.70
2023-03-03T16:05:57.304Z,13.30
2023-03-03T16:06:57.359Z,12.70
2023-03-03T16:07:57.397Z,12.30
2023-03-03T16:08:57.310Z,11.60
2023-03-03T16:09:57.390Z,12.50
2023-03-03T16:10:57.456Z,11.60
2023-03-03T16:11:57.913Z,11.90
2023-03-03T16:12:57.389Z,12.50
2023-03-03T16:13:57.517Z,11.30
2023-03-03T16:14:57.549Z,12.80
2023-03-03T16:15:57.616Z,12.00
2023-03-03T16:16:57.530Z,11.40
2023-03-03T16:17:57.606Z,12.00
2023-03-03T16:18:58.549Z,12.00
2023-03-03T16:19:57.579Z,13.00
2023-03-03T16:20:57.686Z,12.30
2023-03-03T16:21:57.853Z,12.60
2023-03-03T16:22:57.607Z,12.00
2023-03-03T16:23:57.721Z,12.50
2023-03-03T16:24:57.899Z,13.40
2023-03-03T16:25:57.824Z,12.60
2023-03-03T16:26:57.871Z,12.20
2023-03-03T16:27:57.898Z,13.70
2023-03-03T16:28:58.013Z,13.20
2023-03-03T16:29:57.824Z,13.50
2023-03-03T16:30:57.932Z,13.00
2023-03-03T16:31:58.056Z,13.40
2023-03-03T16:32:57.992Z,12.60
2023-03-03T16:33:58.046Z,13.10
2023-03-03T16:34:58.052Z,12.60
2023-03-03T16:35:58.021Z,13.10
2023-03-03T16:36:58.127Z,13.50
2023-03-03T16:37:58.095Z,12.90
2023-03-03T16:38:58.079Z,13.20
2023-03-03T16:39:58.158Z,13.50
2023-03-03T16:40:58.285Z,13.90
2023-03-03T16:41:58.309Z,13.10
2023-03-03T16:42:58.227Z,13.00
2023-03-03T16:43:58.269Z,13.00
2023-03-03T16:44:58.274Z,12.50
2023-03-03T16:45:58.399Z,13.80
2023-03-03T16:46:58.361Z,13.10
2023-03-03T16:47:58.461Z,13.60
2023-03-03T16:48:58.356Z,13.50
2023-03-03T16:49:58.308Z,13.60
2023-03-03T16:50:58.417Z,13.50
2023-03-03T16:51:58.440Z,13.30
2023-03-03T16:52:58.432Z,13.60
2023-03-03T16:53:58.480Z,13.30
2023-03-03T16:54:58.547Z,13.40
2023-03-03T16:55:58.430Z,13.70
2023-03-03T16:56:58.623Z,12.90
2023-03-03T16:57:58.673Z,13.30
2023-03-03T16:58:58.758Z,13.40
2023-03-03T16:59:58.682Z,13.10
2023-03-03T17:00:58.670Z,14.30
2023-03-03T17:01:58.682Z,12.50
2023-03-03T17:02:58.707Z,13.50
2023-03-03T17:03:58.733Z,12.30
2023-03-03T17:04:58.925Z,12.80
2023-03-03T17:05:58.760Z,13.60
2023-03-03T17:06:58.855Z,13.20
2023-03-03T17:07:58.786Z,13.90
2023-03-03T17:08:58.815Z,13.90
2023-03-03T17:09:58.816Z,12.90
2023-03-03T17:10:58.907Z,13.30
2023-03-03T17:11:58.934Z,13.50
2023-03-03T17:12:58.962Z,13.30
2023-03-03T17:13:59.069Z,13.40
2023-03-03T17:14:58.962Z,13.60
2023-03-03T17:15:58.971Z,14.60
2023-03-03T17:17:01.363Z,14.10
2023-03-03T17:17:59.080Z,14.00
2023-03-03T17:18:59.508Z,14.40
2023-03-03T17:19:59.157Z,13.60
2023-03-03T17:20:59.201Z,13.90
2023-03-03T17:21:59.285Z,14.10
2023-03-03T17:22:59.187Z,14.30
2023-03-03T17:23:59.224Z,14.70
2023-03-03T17:24:59.230Z,15.30
2023-03-03T17:25:59.315Z,14.10
2023-03-03T17:26:59.516Z,14.00
2023-03-03T17:27:59.365Z,14.60
2023-03-03T17:28:59.424Z,14.80
2023-03-03T17:29:59.400Z,13.80
2023-03-03T17:30:59.441Z,14.70
2023-03-03T17:31:59.682Z,14.80
2023-03-03T17:32:59.494Z,15.90
2023-03-03T17:33:59.466Z,15.90
2023-03-03T17:34:59.534Z,15.50
2023-03-03T17:35:59.598Z,15.60
2023-03-03T17:36:59.615Z,14.70
2023-03-03T17:37:59.641Z,15.10
2023-03-03T17:38:59.604Z,15.70
2023-03-03T17:40:01.856Z,15.40
2023-03-03T17:40:59.688Z,16.00
2023-03-03T17:42:00.234Z,15.90
2023-03-03T17:42:59.750Z,16.80
2023-03-03T17:44:01.428Z,15.90
2023-03-03T17:44:59.766Z,16.10
2023-03-03T17:45:59.858Z,16.90
2023-03-03T17:47:03.486Z,16.60
2023-03-03T17:48:02.836Z,16.20
2023-03-03T17:48:59.789Z,16.20
2023-03-03T17:49:59.900Z,16.60
2023-03-03T17:50:59.864Z,17.20
2023-03-03T17:51:59.829Z,16.50
2023-03-03T17:52:59.849Z,18.00
2023-03-03T17:53:59.909Z,16.80
2023-03-03T17:54:59.762Z,17.30
2023-03-03T17:56:21.583Z,18.00
2023-03-03T17:57:00.106Z,17.90
2023-03-03T17:58:05.796Z,16.90
2023-03-03T17:58:59.904Z,18.70
2023-03-03T18:00:08.864Z,18.00
2023-03-03T18:01:18.194Z,18.30
2023-03-03T18:01:59.962Z,18.80
2023-03-03T18:03:00.223Z,19.40
2023-03-03T18:04:00.093Z,19.60
2023-03-03T18:04:59.900Z,19.60
2023-03-03T18:05:59.904Z,19.30
2023-03-03T18:07:03.317Z,19.20
2023-03-03T18:08:00.025Z,20.40
2023-03-03T18:09:13.244Z,19.00
2023-03-03T18:09:59.937Z,20.50
2023-03-03T18:10:59.939Z,18.70
2023-03-03T18:11:59.881Z,19.30
2023-03-03T18:13:00.023Z,19.40
2023-03-03T18:14:02.008Z,19.90
2023-03-03T18:14:59.988Z,18.70
2023-03-03T18:16:11.073Z,18.50
2023-03-03T18:17:08.673Z,17.90
2023-03-03T18:18:01.666Z,19.20
2023-03-03T18:18:59.967Z,18.40
2023-03-03T18:20:01.949Z,18.30
2023-03-03T18:20:59.922Z,19.80
2023-03-03T18:22:03.473Z,18.30
2023-03-03T18:23:02.412Z,19.10
2023-03-03T18:24:03.143Z,18.60
2023-03-03T18:25:02.728Z,19.60
2023-03-03T18:26:00.105Z,20.20
2023-03-03T18:27:00.062Z,19.50
2023-03-03T18:28:00.122Z,18.90
2023-03-03T18:29:09.221Z,19.60
2023-03-03T18:30:00.217Z,19.90
2023-03-03T18:31:00.132Z,19.50
2023-03-03T18:32:00.165Z,19.00
2023-03-03T18:33:00.049Z,19.40
2023-03-03T18:34:00.021Z,19.40
2023-03-03T18:35:02.104Z,18.90
2023-03-03T18:36:00.227Z,18.60
2023-03-03T18:37:00.128Z,19.60
2023-03-03T18:38:00.140Z,20.10
2023-03-03T18:39:00.032Z,20.00
2023-03-03T18:40:00.153Z,20.70
2023-03-03T18:40:59.997Z,19.70
2023-03-03T18:42:00.016Z,19.10
2023-03-03T18:43:00.130Z,18.80
2023-03-03T18:44:00.058Z,20.20
2023-03-03T18:45:00.136Z,20.30
2023-03-03T18:46:00.053Z,19.80
2023-03-03T18:47:00.114Z,20.00
2023-03-03T18:48:00.015Z,20.00
2023-03-03T18:49:00.111Z,20.70
2023-03-03T18:50:00.107Z,19.10
2023-03-03T18:51:00.331Z,19.70
2023-03-03T18:52:00.515Z,20.70
2023-03-03T18:53:00.199Z,20.10
2023-03-03T18:54:00.211Z,20.20
2023-03-03T18:55:00.245Z,21.00
2023-03-03T18:56:00.257Z,21.60
2023-03-03T18:57:00.427Z,20.20
2023-03-03T18:58:00.266Z,20.70
2023-03-03T18:59:00.262Z,20.80
2023-03-03T19:00:00.392Z,20.50
2023-03-03T19:01:00.424Z,20.50
2023-03-03T19:02:00.350Z,20.10
2023-03-03T19:03:00.450Z,19.60
2023-03-03T19:04:02.393Z,19.00
2023-03-03T19:05:00.547Z,19.90
2023-03-03T19:06:00.499Z,19.50
2023-03-03T19:07:00.582Z,19.60
2023-03-03T19:08:00.597Z,18.70
2023-03-03T19:09:02.937Z,19.40
2023-03-03T19:10:00.707Z,19.10
2023-03-03T19:11:00.753Z,19.30
2023-03-03T19:12:00.664Z,19.20
2023-03-03T19:13:00.673Z,19.10
2023-03-03T19:14:00.576Z,18.80
2023-03-03T19:15:00.679Z,17.60
2023-03-03T19:16:00.865Z,19.40
2023-03-03T19:17:00.673Z,18.30
2023-03-03T19:18:00.830Z,18.30
2023-03-03T19:19:00.841Z,18.10
2023-03-03T19:20:00.879Z,17.70
2023-03-03T19:21:00.884Z,18.10
2023-03-03T19:22:00.906Z,17.70
2023-03-03T19:23:00.862Z,18.40
2023-03-03T19:24:01.094Z,18.00
2023-03-03T19:25:00.949Z,18.10
2023-03-03T19:26:00.965Z,17.70
2023-03-03T19:27:01.063Z,18.20
2023-03-03T19:28:01.014Z,16.90
2023-03-03T19:29:01.088Z,17.60
2023-03-03T19:30:01.099Z,17.70
2023-03-03T19:31:01.167Z,17.50
2023-03-03T19:32:01.100Z,16.10
2023-03-03T19:33:01.181Z,15.90
2023-03-03T19:34:01.230Z,16.00
2023-03-03T19:35:01.181Z,15.00
2023-03-03T19:36:01.283Z,15.30
2023-03-03T19:37:01.570Z,15.20
2023-03-03T19:38:01.344Z,15.40
2023-03-03T19:39:01.403Z,15.00
2023-03-03T19:40:01.397Z,14.70
2023-03-03T19:41:01.692Z,15.50
2023-03-03T19:42:01.416Z,14.80
2023-03-03T19:43:01.297Z,14.20
2023-03-03T19:44:01.392Z,14.50
2023-03-03T19:45:01.556Z,14.80
